createdAt,value
2022-11-05T00:02:33.831Z,0.90
2022-11-05T00:05:19.882Z,1.53
2022-11-05T00:08:07.528Z,0.77
2022-11-05T00:10:37.354Z,1.13
2022-11-05T00:13:25.094Z,0.87
2022-11-05T00:16:11.373Z,1.33
2022-11-05T00:18:39.329Z,0.80
2022-11-05T00:21:26.870Z,0.80
2022-11-05T00:24:12.757Z,0.97
2022-11-05T00:26:40.284Z,1.60
2022-11-05T00:29:07.726Z,1.00
2022-11-05T00:31:35.233Z,1.03
2022-11-05T00:34:02.762Z,0.90
2022-11-05T00:36:30.258Z,1.20
2022-11-05T00:38:57.631Z,0.90
2022-11-05T00:41:25.055Z,0.93
2022-11-05T00:44:11.186Z,0.87
2022-11-05T00:46:38.580Z,0.90
2022-11-05T00:49:24.528Z,0.90
2022-11-05T00:52:11.867Z,1.30
2022-11-05T00:54:39.327Z,0.90
2022-11-05T00:57:06.845Z,0.90
2022-11-05T00:59:34.332Z,0.90
2022-11-05T01:02:01.747Z,1.00
2022-11-05T01:04:29.492Z,0.90
2022-11-05T01:06:57.003Z,0.90
2022-11-05T01:09:24.400Z,1.00
2022-11-05T01:11:51.881Z,1.27
2022-11-05T01:14:19.472Z,1.33
2022-11-05T01:16:46.980Z,0.97
2022-11-05T01:19:14.491Z,1.00
2022-11-05T01:21:42.068Z,1.00
2022-11-05T01:24:11.254Z,1.00
2022-11-05T01:26:38.780Z,1.00
2022-11-05T01:29:06.116Z,3.60
2022-11-05T01:31:33.568Z,1.00
2022-11-05T01:34:01.880Z,2.33
2022-11-05T01:36:29.615Z,1.00
2022-11-05T01:38:57.217Z,0.90
2022-11-05T01:41:27.358Z,0.90
2022-11-05T01:43:56.685Z,0.70
2022-11-05T01:46:27.392Z,1.03
2022-11-05T01:49:01.805Z,1.00
2022-11-05T01:51:30.612Z,1.17
2022-11-05T01:53:59.732Z,1.13
2022-11-05T01:56:29.208Z,0.87
2022-11-05T01:59:01.351Z,1.13
2022-11-05T02:01:32.302Z,1.10
2022-11-05T02:04:02.589Z,1.00
2022-11-05T02:06:30.984Z,1.30
2022-11-05T02:09:04.190Z,1.00
2022-11-05T02:11:31.955Z,0.83
2022-11-05T02:13:59.841Z,0.80
2022-11-05T02:16:48.201Z,0.90
2022-11-05T02:19:34.473Z,0.87
2022-11-05T02:22:20.743Z,1.00
2022-11-05T02:25:02.417Z,0.90
2022-11-05T02:27:48.858Z,0.90
2022-11-05T02:30:32.546Z,0.90
2022-11-05T02:33:19.063Z,0.90
2022-11-05T02:36:01.589Z,0.90
2022-11-05T02:38:32.059Z,0.90
2022-11-05T02:41:09.219Z,1.40
2022-11-05T02:43:43.063Z,1.00
2022-11-05T02:46:13.623Z,1.00
2022-11-05T02:48:52.654Z,0.80
2022-11-05T02:51:27.974Z,0.90
2022-11-05T02:54:14.128Z,0.80
2022-11-05T02:56:44.194Z,0.90
2022-11-05T02:59:11.576Z,0.93
2022-11-05T03:01:40.321Z,0.80
2022-11-05T03:04:09.611Z,0.90
2022-11-05T03:06:55.867Z,0.90
2022-11-05T03:09:49.777Z,1.13
2022-11-05T03:12:21.451Z,0.90
2022-11-05T03:15:07.843Z,2.10
2022-11-05T03:17:45.234Z,1.00
2022-11-05T03:20:20.733Z,0.80
2022-11-05T03:22:52.578Z,0.90
2022-11-05T03:25:22.168Z,0.87
2022-11-05T03:27:51.823Z,0.87
2022-11-05T03:30:19.665Z,0.80
2022-11-05T03:32:54.624Z,0.93
2022-11-05T03:35:24.520Z,0.80
2022-11-05T03:37:53.960Z,0.87
2022-11-05T03:40:23.521Z,0.90
2022-11-05T03:42:53.307Z,0.90
2022-11-05T03:45:35.276Z,0.80
2022-11-05T03:48:04.211Z,0.80
2022-11-05T03:50:43.995Z,0.80
2022-11-05T03:53:16.881Z,0.80
2022-11-05T03:56:02.118Z,0.80
2022-11-05T03:58:30.216Z,0.80
2022-11-05T04:00:59.727Z,3.03
2022-11-05T04:03:27.090Z,0.90
2022-11-05T04:06:15.290Z,0.73
2022-11-05T04:09:01.282Z,0.80
2022-11-05T04:11:47.347Z,0.87
2022-11-05T04:14:14.612Z,1.00
2022-11-05T04:17:00.790Z,0.80
2022-11-05T04:19:46.873Z,0.83
2022-11-05T04:22:32.965Z,0.80
2022-11-05T04:25:00.457Z,0.80
2022-11-05T04:27:27.913Z,0.80
2022-11-05T04:30:14.047Z,2.40
2022-11-05T04:33:00.795Z,1.00
2022-11-05T04:35:32.893Z,0.90
2022-11-05T04:38:00.328Z,0.73
2022-11-05T04:40:27.742Z,0.80
2022-11-05T04:42:56.016Z,0.80
2022-11-05T04:45:24.098Z,0.90
2022-11-05T04:47:51.606Z,1.17
2022-11-05T04:50:19.091Z,0.80
2022-11-05T04:52:46.435Z,1.00
2022-11-05T04:55:13.861Z,0.97
2022-11-05T04:57:41.283Z,0.90
2022-11-05T05:00:09.247Z,1.70
2022-11-05T05:02:36.808Z,0.80
2022-11-05T05:05:04.279Z,1.30
2022-11-05T05:07:32.696Z,0.90
2022-11-05T05:10:00.175Z,1.03
2022-11-05T05:12:27.569Z,1.00
2022-11-05T05:14:54.992Z,1.00
2022-11-05T05:17:23.262Z,0.97
2022-11-05T05:20:09.223Z,0.93
2022-11-05T05:22:37.037Z,0.90
2022-11-05T05:25:04.582Z,1.00
2022-11-05T05:27:32.701Z,1.00
2022-11-05T05:30:00.750Z,1.17
2022-11-05T05:32:28.275Z,0.90
2022-11-05T05:34:55.721Z,0.93
2022-11-05T05:37:23.311Z,0.90
2022-11-05T05:39:50.633Z,0.90
2022-11-05T05:42:18.139Z,0.80
2022-11-05T05:44:45.453Z,0.90
2022-11-05T05:47:14.149Z,0.80
2022-11-05T05:49:41.452Z,0.90
2022-11-05T05:52:08.893Z,0.90
2022-11-05T05:54:42.317Z,0.90
2022-11-05T05:57:10.307Z,0.90
2022-11-05T05:59:37.982Z,0.90
2022-11-05T06:02:05.466Z,0.90
2022-11-05T06:04:33.010Z,1.50
2022-11-05T06:07:00.423Z,1.00
2022-11-05T06:09:27.768Z,1.03
2022-11-05T06:11:55.118Z,1.00
2022-11-05T06:14:22.526Z,1.13
2022-11-05T06:16:49.839Z,0.90
2022-11-05T06:19:17.384Z,1.20
2022-11-05T06:21:44.845Z,0.90
2022-11-05T06:24:12.268Z,1.00
2022-11-05T06:26:42.854Z,0.87
2022-11-05T06:29:10.669Z,1.00
2022-11-05T06:31:38.112Z,1.00
2022-11-05T06:34:05.728Z,1.00
2022-11-05T06:36:33.541Z,1.00
2022-11-05T06:39:00.966Z,0.90
2022-11-05T06:41:28.445Z,0.90
2022-11-05T06:43:56.982Z,1.27
2022-11-05T06:46:24.463Z,1.07
2022-11-05T06:48:55.273Z,1.00
2022-11-05T06:51:33.040Z,0.80
2022-11-05T06:54:02.626Z,0.90
2022-11-05T06:56:30.103Z,0.90
2022-11-05T06:58:57.551Z,1.20
2022-11-05T07:01:27.444Z,1.00
2022-11-05T07:03:55.091Z,1.10
2022-11-05T07:06:22.593Z,0.90
2022-11-05T07:08:52.508Z,0.90
2022-11-05T07:11:20.259Z,1.10
2022-11-05T07:13:49.147Z,0.93
2022-11-05T07:16:16.513Z,3.13
2022-11-05T07:18:44.086Z,1.10
2022-11-05T07:21:11.881Z,1.20
2022-11-05T07:23:42.072Z,1.10
2022-11-05T07:26:09.483Z,1.27
2022-11-05T07:28:37.107Z,1.00
2022-11-05T07:31:04.847Z,1.13
2022-11-05T07:33:36.366Z,1.20
2022-11-05T07:36:06.216Z,1.20
2022-11-05T07:38:35.326Z,1.43
2022-11-05T07:41:09.450Z,1.50
2022-11-05T07:43:37.059Z,1.00
2022-11-05T07:46:12.633Z,1.37
2022-11-05T07:48:55.319Z,1.17
2022-11-05T07:51:36.138Z,1.13
2022-11-05T07:54:06.199Z,0.93
2022-11-05T07:56:33.831Z,1.10
2022-11-05T07:59:06.186Z,1.00
2022-11-05T08:01:34.005Z,1.50
2022-11-05T08:04:05.880Z,1.17
2022-11-05T08:06:33.939Z,1.50
2022-11-05T08:09:04.038Z,1.10
2022-11-05T08:11:32.265Z,1.60
2022-11-05T08:13:59.675Z,1.23
2022-11-05T08:16:27.052Z,1.43
2022-11-05T08:18:56.710Z,1.50
2022-11-05T08:21:24.392Z,1.70
2022-11-05T08:23:54.180Z,1.10
2022-11-05T08:26:26.896Z,1.50
2022-11-05T08:28:56.885Z,1.07
2022-11-05T08:31:24.831Z,1.07
2022-11-05T08:33:59.731Z,1.63
2022-11-05T08:36:29.859Z,1.23
2022-11-05T08:38:57.601Z,1.30
2022-11-05T08:41:25.269Z,1.53
2022-11-05T08:43:55.560Z,1.20
2022-11-05T08:46:22.990Z,1.73
2022-11-05T08:48:50.666Z,1.20
2022-11-05T08:51:18.111Z,1.37
2022-11-05T08:53:45.661Z,2.30
2022-11-05T08:56:13.307Z,2.97
2022-11-05T08:58:40.850Z,1.47
2022-11-05T09:01:09.807Z,1.77
2022-11-05T09:03:37.701Z,1.23
2022-11-05T09:06:05.218Z,1.17
2022-11-05T09:08:35.684Z,1.20
2022-11-05T09:11:03.056Z,1.27
2022-11-05T09:13:30.660Z,1.17
2022-11-05T09:15:59.805Z,1.30
2022-11-05T09:18:29.820Z,1.00
2022-11-05T09:20:57.379Z,1.50
2022-11-05T09:23:24.719Z,1.47
2022-11-05T09:25:54.683Z,1.30
2022-11-05T09:28:25.718Z,1.40
2022-11-05T09:30:56.074Z,1.50
2022-11-05T09:33:25.055Z,1.23
2022-11-05T09:35:54.579Z,1.50
2022-11-05T09:38:22.346Z,1.30
2022-11-05T09:40:56.551Z,1.23
2022-11-05T09:43:31.488Z,1.50
2022-11-05T09:46:01.199Z,1.40
2022-11-05T09:48:29.759Z,1.23
2022-11-05T09:50:58.293Z,1.20
2022-11-05T09:53:26.244Z,1.33
2022-11-05T09:55:57.842Z,1.40
2022-11-05T09:58:39.841Z,1.30
2022-11-05T10:01:11.693Z,1.13
2022-11-05T10:03:45.815Z,1.03
2022-11-05T10:06:18.384Z,1.30
2022-11-05T10:08:51.398Z,1.13
2022-11-05T10:11:42.479Z,1.20
2022-11-05T10:14:15.081Z,1.23
2022-11-05T10:16:44.131Z,1.87
2022-11-05T10:19:24.563Z,1.37
2022-11-05T10:22:11.061Z,1.35
2022-11-05T10:24:39.397Z,1.47
2022-11-05T10:27:08.131Z,1.10
2022-11-05T10:29:36.421Z,8.87
2022-11-05T10:32:05.943Z,1.50
2022-11-05T10:34:35.116Z,1.50
2022-11-05T10:37:04.744Z,1.23
2022-11-05T10:39:33.263Z,0.93
2022-11-05T10:42:19.701Z,1.07
2022-11-05T10:44:54.365Z,1.50
2022-11-05T10:47:31.165Z,1.03
2022-11-05T10:50:00.338Z,1.37
2022-11-05T10:52:27.951Z,1.17
2022-11-05T10:55:03.415Z,0.90
2022-11-05T10:57:30.922Z,1.53
2022-11-05T11:00:18.302Z,2.10
2022-11-05T11:03:02.492Z,1.40
2022-11-05T11:05:30.007Z,1.17
2022-11-05T11:08:00.723Z,1.10
2022-11-05T11:10:29.323Z,1.10
2022-11-05T11:13:00.305Z,1.73
2022-11-05T11:15:37.321Z,1.20
2022-11-05T11:18:26.898Z,1.37
2022-11-05T11:21:20.363Z,1.33
2022-11-05T11:23:57.850Z,1.07
2022-11-05T11:26:27.399Z,1.50
2022-11-05T11:29:02.596Z,1.10
2022-11-05T11:31:33.082Z,1.90
2022-11-05T11:34:05.900Z,1.33
2022-11-05T11:36:38.222Z,1.00
2022-11-05T11:39:06.861Z,1.10
2022-11-05T11:41:37.365Z,1.50
2022-11-05T11:44:14.384Z,1.60
2022-11-05T11:46:42.042Z,1.10
2022-11-05T11:49:31.030Z,1.03
2022-11-05T11:52:02.469Z,1.10
2022-11-05T11:54:33.753Z,1.47
2022-11-05T11:57:03.622Z,1.20
2022-11-05T12:00:01.863Z,1.50
2022-11-05T12:02:37.406Z,1.33
2022-11-05T12:05:14.088Z,1.47
2022-11-05T12:08:00.453Z,1.20
2022-11-05T12:10:30.860Z,1.10
2022-11-05T12:13:06.711Z,1.00
2022-11-05T12:15:46.271Z,1.07
2022-11-05T12:18:19.812Z,1.40
2022-11-05T12:20:59.662Z,1.07
2022-11-05T12:23:33.378Z,1.10
2022-11-05T12:26:06.455Z,1.60
2022-11-05T12:29:04.472Z,1.20
2022-11-05T12:31:30.082Z,1.47
2022-11-05T12:34:15.143Z,1.00
2022-11-05T12:36:42.492Z,1.10
2022-11-05T12:39:25.316Z,1.33
2022-11-05T12:41:58.162Z,1.30
2022-11-05T12:44:31.553Z,1.17
2022-11-05T12:47:23.335Z,1.10
2022-11-05T12:50:12.148Z,3.90
2022-11-05T12:53:06.552Z,1.10
2022-11-05T12:55:47.090Z,1.10
2022-11-05T12:58:20.954Z,1.20
2022-11-05T13:00:52.111Z,1.00
2022-11-05T13:03:22.939Z,1.00
2022-11-05T13:05:57.400Z,1.17
2022-11-05T13:08:50.747Z,0.90
2022-11-05T13:11:19.615Z,1.10
2022-11-05T13:14:07.299Z,2.10
2022-11-05T13:16:39.459Z,1.13
2022-11-05T13:19:09.933Z,1.10
2022-11-05T13:21:37.956Z,0.87
2022-11-05T13:24:19.884Z,1.87
2022-11-05T13:26:57.591Z,1.17
2022-11-05T13:29:25.044Z,1.40
2022-11-05T13:31:59.231Z,1.30
2022-11-05T13:34:34.869Z,1.27
2022-11-05T13:37:32.733Z,1.20
2022-11-05T13:40:02.308Z,1.23
2022-11-05T13:42:48.745Z,1.00
2022-11-05T13:45:16.123Z,1.40
2022-11-05T13:47:53.759Z,1.50
2022-11-05T13:50:44.753Z,1.00
2022-11-05T13:53:39.633Z,1.33
2022-11-05T13:56:16.183Z,1.30
2022-11-05T13:58:43.625Z,1.27
2022-11-05T14:01:17.411Z,1.40
2022-11-05T14:03:49.517Z,1.20
2022-11-05T14:06:24.290Z,1.60
2022-11-05T14:08:52.161Z,1.23
2022-11-05T14:11:30.105Z,1.23
2022-11-05T14:13:59.533Z,1.50
2022-11-05T14:16:32.401Z,1.47
2022-11-05T14:19:18.568Z,1.10
2022-11-05T14:21:50.516Z,1.03
2022-11-05T14:24:24.169Z,1.63
2022-11-05T14:27:04.265Z,1.17
2022-11-05T14:29:51.945Z,1.10
2022-11-05T14:32:19.480Z,1.40
2022-11-05T14:34:49.245Z,1.30
2022-11-05T14:37:25.025Z,1.63
2022-11-05T14:39:54.759Z,2.27
2022-11-05T14:42:27.441Z,1.30
2022-11-05T14:45:01.097Z,1.23
2022-11-05T14:47:38.326Z,1.83
2022-11-05T14:50:09.197Z,1.10
2022-11-05T14:52:37.802Z,1.43
2022-11-05T14:55:06.467Z,1.23
2022-11-05T14:57:43.085Z,1.33
2022-11-05T15:00:40.847Z,1.33
2022-11-05T15:03:27.780Z,1.37
2022-11-05T15:06:04.868Z,1.30
2022-11-05T15:08:38.139Z,1.60
2022-11-05T15:11:25.539Z,1.47
2022-11-05T15:13:56.128Z,1.60
2022-11-05T15:16:26.023Z,2.20
2022-11-05T15:18:54.825Z,2.70
2022-11-05T15:21:25.388Z,3.27
2022-11-05T15:23:56.783Z,2.90
2022-11-05T15:26:27.379Z,7.37
2022-11-05T15:28:57.678Z,4.30
2022-11-05T15:31:29.583Z,2.80
2022-11-05T15:34:16.540Z,4.30
2022-11-05T15:37:06.342Z,3.57
2022-11-05T15:39:40.318Z,4.20
2022-11-05T15:42:17.729Z,5.33
2022-11-05T15:44:53.360Z,3.10
2022-11-05T15:47:20.998Z,4.27
2022-11-05T15:50:14.769Z,4.27
2022-11-05T15:52:49.966Z,8.50
2022-11-05T15:55:17.811Z,3.33
2022-11-05T15:58:02.170Z,4.93
2022-11-05T16:00:37.001Z,9.97
2022-11-05T16:03:28.093Z,9.40
2022-11-05T16:05:58.481Z,3.57
2022-11-05T16:08:27.769Z,5.30
2022-11-05T16:10:56.828Z,4.20
2022-11-05T16:13:38.035Z,3.93
2022-11-05T16:16:14.786Z,5.10
2022-11-05T16:18:43.001Z,1.90
2022-11-05T16:21:12.034Z,7.90
2022-11-05T16:23:45.605Z,6.30
2022-11-05T16:29:24.063Z,5.70
2022-11-05T16:31:53.148Z,6.57
2022-11-05T16:34:39.391Z,4.93
2022-11-05T16:37:07.782Z,5.40
2022-11-05T16:39:35.165Z,4.40
2022-11-05T16:42:02.664Z,4.93
2022-11-05T16:44:30.182Z,5.23
2022-11-05T16:46:58.390Z,2.33
2022-11-05T16:49:25.718Z,6.27
2022-11-05T16:51:55.794Z,2.10
2022-11-05T16:54:23.109Z,3.20
2022-11-05T16:56:50.573Z,3.17
2022-11-05T16:59:17.939Z,3.93
2022-11-05T17:01:45.409Z,5.07
2022-11-05T17:04:13.929Z,3.03
2022-11-05T17:06:41.340Z,4.07
2022-11-05T17:09:08.739Z,3.57
2022-11-05T17:11:36.071Z,4.63
2022-11-05T17:14:03.386Z,3.90
2022-11-05T17:16:30.632Z,5.03
2022-11-05T17:18:58.079Z,3.03
2022-11-05T17:21:25.394Z,2.67
2022-11-05T17:23:52.782Z,3.53
2022-11-05T17:26:20.362Z,4.77
2022-11-05T17:28:47.660Z,3.50
2022-11-05T17:31:17.231Z,4.23
2022-11-05T17:33:44.802Z,4.43
2022-11-05T17:36:13.811Z,6.43
2022-11-05T17:38:41.200Z,4.50
2022-11-05T17:41:15.818Z,3.57
2022-11-05T17:43:43.486Z,2.57
2022-11-05T17:46:11.951Z,2.07
2022-11-05T17:48:39.526Z,2.73
2022-11-05T17:51:11.525Z,3.53
2022-11-05T17:53:38.911Z,2.70
2022-11-05T17:56:12.915Z,2.73
2022-11-05T17:58:40.910Z,2.17
2022-11-05T18:01:15.608Z,2.03
2022-11-05T18:03:46.181Z,2.90
2022-11-05T18:06:13.539Z,2.33
2022-11-05T18:08:41.018Z,2.90
2022-11-05T18:11:08.436Z,3.57
2022-11-05T18:13:35.983Z,2.60
2022-11-05T18:16:05.644Z,3.67
2022-11-05T18:18:33.039Z,3.13
2022-11-05T18:21:00.440Z,3.27
2022-11-05T18:23:27.827Z,6.00
2022-11-05T18:25:55.251Z,2.17
2022-11-05T18:28:22.590Z,3.83
2022-11-05T18:30:49.963Z,2.57
2022-11-05T18:33:17.623Z,3.03
2022-11-05T18:35:45.732Z,4.27
2022-11-05T18:38:13.360Z,2.73
2022-11-05T18:40:40.785Z,2.90
2022-11-05T18:43:09.019Z,2.53
2022-11-05T18:45:36.633Z,2.33
2022-11-05T18:48:04.402Z,2.20
2022-11-05T18:50:31.893Z,2.83
2022-11-05T18:52:59.263Z,3.07
2022-11-05T18:55:26.715Z,3.00
2022-11-05T18:57:56.868Z,2.27
2022-11-05T19:00:27.911Z,2.83
2022-11-05T19:02:57.847Z,3.23
2022-11-05T19:05:29.630Z,2.77
2022-11-05T19:07:57.621Z,1.70
2022-11-05T19:10:25.183Z,2.53
2022-11-05T19:12:53.007Z,3.47
2022-11-05T19:15:21.008Z,1.77
2022-11-05T19:17:56.929Z,2.50
2022-11-05T19:20:24.760Z,3.33
2022-11-05T19:22:52.109Z,2.10
2022-11-05T19:25:19.873Z,2.40
2022-11-05T19:27:47.249Z,2.47
2022-11-05T19:30:14.735Z,1.97
2022-11-05T19:32:42.246Z,3.00
2022-11-05T19:35:09.927Z,2.83
2022-11-05T19:37:37.384Z,2.00
2022-11-05T19:40:04.957Z,2.10
2022-11-05T19:42:32.442Z,1.60
2022-11-05T19:45:23.148Z,1.80
2022-11-05T19:47:49.688Z,2.20
2022-11-05T19:50:17.089Z,1.67
2022-11-05T19:52:44.661Z,1.70
2022-11-05T19:55:12.554Z,1.40
2022-11-05T19:57:40.110Z,1.50
2022-11-05T20:00:07.952Z,2.83
2022-11-05T20:02:43.061Z,1.80
2022-11-05T20:05:10.702Z,1.50
2022-11-05T20:07:38.145Z,3.00
2022-11-05T20:10:06.346Z,1.83
2022-11-05T20:12:34.502Z,1.60
2022-11-05T20:15:02.795Z,1.53
2022-11-05T20:17:30.855Z,1.73
2022-11-05T20:19:58.357Z,2.00
2022-11-05T20:22:25.819Z,3.53
2022-11-05T20:24:53.401Z,1.40
2022-11-05T20:27:20.809Z,1.60
2022-11-05T20:29:48.146Z,2.43
2022-11-05T20:32:15.708Z,1.40
2022-11-05T20:34:43.045Z,1.87
2022-11-05T20:37:10.381Z,1.30
2022-11-05T20:39:37.931Z,1.10
2022-11-05T20:42:05.331Z,1.40
2022-11-05T20:44:32.667Z,1.23
2022-11-05T20:47:00.476Z,1.60
2022-11-05T20:49:27.840Z,1.40
2022-11-05T20:51:55.317Z,1.67
2022-11-05T20:54:22.901Z,1.87
2022-11-05T20:56:50.369Z,1.93
2022-11-05T20:59:17.800Z,1.90
2022-11-05T21:01:46.327Z,1.37
2022-11-05T21:04:13.995Z,1.50
2022-11-05T21:06:44.801Z,1.67
2022-11-05T21:09:13.864Z,1.40
2022-11-05T21:12:00.032Z,1.57
2022-11-05T21:14:27.585Z,1.40
2022-11-05T21:16:55.126Z,2.37
2022-11-05T21:19:24.125Z,1.63
2022-11-05T21:21:51.636Z,1.23
2022-11-05T21:24:18.947Z,1.63
2022-11-05T21:26:50.002Z,1.50
2022-11-05T21:29:18.154Z,1.63
2022-11-05T21:31:47.633Z,1.40
2022-11-05T21:34:15.202Z,2.13
2022-11-05T21:36:42.676Z,1.23
2022-11-05T21:39:13.383Z,1.30
2022-11-05T21:41:42.668Z,1.20
2022-11-05T21:44:10.340Z,2.03
2022-11-05T21:46:38.034Z,1.13
2022-11-05T21:49:05.399Z,1.00
2022-11-05T21:51:51.379Z,1.00
2022-11-05T21:54:37.545Z,1.20
2022-11-05T21:57:23.679Z,0.90
2022-11-05T21:59:52.409Z,1.40
2022-11-05T22:02:21.492Z,1.20
2022-11-05T22:04:50.686Z,1.17
2022-11-05T22:07:21.050Z,1.33
2022-11-05T22:09:48.967Z,1.00
2022-11-05T22:12:19.383Z,1.07
2022-11-05T22:14:46.866Z,1.27
2022-11-05T22:17:14.971Z,1.20
2022-11-05T22:19:42.554Z,1.20
2022-11-05T22:22:10.267Z,1.30
2022-11-05T22:24:38.383Z,1.10
2022-11-05T22:27:15.780Z,1.37
2022-11-05T22:29:43.748Z,1.10
2022-11-05T22:32:12.044Z,1.33
2022-11-05T22:34:39.679Z,1.20
2022-11-05T22:37:07.563Z,1.10
2022-11-05T22:39:35.117Z,1.30
2022-11-05T22:42:08.080Z,1.60
2022-11-05T22:44:39.387Z,3.77
2022-11-05T22:47:09.977Z,1.13
2022-11-05T22:49:37.535Z,1.40
2022-11-05T22:52:05.058Z,1.97
2022-11-05T22:54:37.872Z,1.30
2022-11-05T22:57:06.586Z,1.27
2022-11-05T22:59:34.038Z,1.17
2022-11-05T23:02:09.227Z,1.30
2022-11-05T23:04:37.559Z,1.17
2022-11-05T23:07:27.602Z,1.40
2022-11-05T23:10:14.322Z,3.30
2022-11-05T23:12:43.831Z,1.67
2022-11-05T23:15:31.265Z,1.70
2022-11-05T23:18:17.340Z,1.40
2022-11-05T23:21:03.403Z,1.40
2022-11-05T23:23:49.531Z,1.60
2022-11-05T23:26:35.566Z,1.57
2022-11-05T23:29:03.064Z,1.20
2022-11-05T23:31:49.121Z,1.30
2022-11-05T23:34:16.459Z,1.27
2022-11-05T23:37:02.474Z,1.73
2022-11-05T23:39:29.951Z,3.03
2022-11-05T23:42:17.976Z,1.00
2022-11-05T23:45:04.095Z,1.50
2022-11-05T23:47:50.029Z,1.40
2022-11-05T23:50:17.740Z,1.33
2022-11-05T23:52:45.306Z,1.37
2022-11-05T23:55:12.795Z,1.10
2022-11-05T23:57:40.867Z,1.10
